Time;durP1;ratioP1;P1;durP2;ratioP2;P2;SDS_P1;SDS_P2;PMS_P1;PMS_P2;Temp;Humidity;BMP_temperature;BMP_pressure;BME280_temperature;BME280_humidity;BME280_pressure;Samples;Min_cycle;Max_cycle;Signal;HPM_P1;HPM_P2
2022/06/26 00:01:41;;;;;;;75.25;40.15;;;;;;;;;;5043249;27;92472;-70
2022/06/26 00:04:07;;;;;;;83.55;45.05;;;;;;;;;;5038146;27;94119;-70
2022/06/26 00:06:33;;;;;;;62.63;37.75;;;;;;;;;;5034519;27;92478;-70
2022/06/26 00:09:00;;;;;;;61.92;38.50;;;;;;;;;;5042722;27;95257;-70
2022/06/26 00:11:26;;;;;;;67.43;39.08;;;;;;;;;;5032243;27;95733;-70
2022/06/26 00:14:07;;;;;;;59.42;35.75;;;;;;;;;;5034607;27;93089;-71
2022/06/26 00:16:33;;;;;;;101.72;45.05;;;;;;;;;;5042545;27;93186;-70
2022/06/26 00:18:59;;;;;;;89.88;46.97;;;;;;;;;;5035375;27;93966;-70
2022/06/26 00:21:26;;;;;;;75.00;41.83;;;;;;;;;;5034075;27;92480;-70
2022/06/26 00:23:52;;;;;;;71.88;42.22;;;;;;;;;;5037789;27;93337;-70
2022/06/26 00:26:18;;;;;;;97.75;48.78;;;;;;;;;;5037032;27;93462;-70
2022/06/26 00:28:45;;;;;;;92.53;47.33;;;;;;;;;;5036452;27;93447;-70
2022/06/26 00:31:11;;;;;;;118.25;52.10;;;;;;;;;;5040688;27;93561;-70
2022/06/26 00:33:38;;;;;;;76.97;42.85;;;;;;;;;;5033790;27;92816;-71
2022/06/26 00:36:04;;;;;;;110.00;49.13;;;;;;;;;;5033259;27;94820;-70
2022/06/26 00:38:31;;;;;;;113.97;50.53;;;;;;;;;;5051530;27;92457;-70
2022/06/26 00:40:57;;;;;;;112.60;51.58;;;;;;;;;;5053183;27;92916;-70
2022/06/26 00:43:29;;;;;;;86.78;44.03;;;;;;;;;;5047853;27;93813;-70
2022/06/26 00:45:56;;;;;;;77.32;42.35;;;;;;;;;;5018708;27;95059;-71
2022/06/26 00:48:22;;;;;;;77.25;42.00;;;;;;;;;;5039359;27;92771;-70
2022/06/26 00:50:50;;;;;;;95.40;46.70;;;;;;;;;;5026641;27;95552;-71
2022/06/26 00:53:16;;;;;;;100.78;47.38;;;;;;;;;;5045947;27;92165;-70
2022/06/26 00:55:43;;;;;;;97.75;48.20;;;;;;;;;;5044493;27;92848;-70
2022/06/26 00:58:10;;;;;;;90.60;45.05;;;;;;;;;;5038811;27;93273;-70
2022/06/26 01:00:36;;;;;;;53.35;34.70;;;;;;;;;;5044612;27;94838;-71
2022/06/26 01:03:02;;;;;;;54.25;33.83;;;;;;;;;;5034608;27;96034;-70
2022/06/26 01:05:29;;;;;;;59.22;37.17;;;;;;;;;;5041569;27;92893;-70
2022/06/26 01:07:55;;;;;;;64.25;37.42;;;;;;;;;;5036507;27;92484;-71
2022/06/26 01:10:22;;;;;;;84.93;44.15;;;;;;;;;;5034788;27;92759;-71
2022/06/26 01:12:48;;;;;;;72.78;39.35;;;;;;;;;;5025281;27;92530;-70
2022/06/26 01:15:15;;;;;;;74.00;40.72;;;;;;;;;;5022283;28;95811;-70
2022/06/26 01:17:42;;;;;;;74.78;40.90;;;;;;;;;;5022496;27;92334;-70
2022/06/26 01:20:12;;;;;;;63.85;36.38;;;;;;;;;;5023376;28;92470;-70
2022/06/26 01:22:38;;;;;;;58.90;35.35;;;;;;;;;;5015151;28;93083;-70
2022/06/26 01:25:05;;;;;;;59.35;35.45;;;;;;;;;;5022553;28;95987;-70
2022/06/26 01:27:39;;;;;;;45.92;31.70;;;;;;;;;;5024056;28;92529;-70
2022/06/26 01:30:06;;;;;;;44.35;30.70;;;;;;;;;;5018059;27;95665;-71
2022/06/26 01:32:33;;;;;;;41.40;29.33;;;;;;;;;;5016384;28;92667;-71
2022/06/26 01:34:59;;;;;;;52.45;33.67;;;;;;;;;;5018571;27;93884;-71
2022/06/26 01:37:25;;;;;;;51.65;32.15;;;;;;;;;;5015739;28;94113;-71
2022/06/26 01:39:52;;;;;;;44.83;28.58;;;;;;;;;;5023648;27;92467;-70
2022/06/26 01:42:18;;;;;;;70.57;37.30;;;;;;;;;;5034802;27;95417;-70
2022/06/26 01:44:45;;;;;;;37.42;26.70;;;;;;;;;;5053503;27;94131;-70
2022/06/26 01:47:12;;;;;;;41.35;30.15;;;;;;;;;;5024321;27;92510;-71
2022/06/26 01:49:38;;;;;;;41.22;28.33;;;;;;;;;;5014408;27;95004;-70
2022/06/26 01:52:05;;;;;;;31.98;25.33;;;;;;;;;;5024959;27;94624;-70
2022/06/26 01:54:31;;;;;;;43.83;28.27;;;;;;;;;;5029957;28;92979;-70
2022/06/26 01:56:58;;;;;;;35.42;26.48;;;;;;;;;;5013559;27;94879;-72
2022/06/26 01:59:26;;;;;;;38.88;26.95;;;;;;;;;;5015790;28;92674;-71
2022/06/26 02:01:52;;;;;;;38.47;27.67;;;;;;;;;;5022496;27;94673;-71
2022/06/26 02:04:21;;;;;;;35.00;26.55;;;;;;;;;;5026403;27;93189;-71
2022/06/26 02:06:47;;;;;;;42.15;29.20;;;;;;;;;;5035266;27;92312;-71
2022/06/26 02:14:51;;;;;;;42.58;30.80;;;;;;;;;;5015742;28;95139;-71
2022/06/26 02:17:18;;;;;;;40.28;29.63;;;;;;;;;;5023774;27;93655;-70
2022/06/26 02:19:44;;;;;;;40.92;30.38;;;;;;;;;;5014716;28;92493;-71
2022/06/26 02:22:11;;;;;;;49.10;32.47;;;;;;;;;;5016512;27;93039;-71
2022/06/26 02:24:41;;;;;;;37.25;29.95;;;;;;;;;;5049332;27;92662;-71
2022/06/26 02:27:08;;;;;;;48.22;33.13;;;;;;;;;;5014931;27;93559;-71
2022/06/26 02:29:34;;;;;;;41.78;32.33;;;;;;;;;;5019254;27;95628;-71
2022/06/26 02:32:00;;;;;;;52.10;36.50;;;;;;;;;;5051656;27;91739;-71
2022/06/26 02:34:27;;;;;;;46.45;34.88;;;;;;;;;;5018774;27;92422;-71
2022/06/26 02:36:53;;;;;;;44.13;32.67;;;;;;;;;;5048983;27;93353;-71
2022/06/26 02:39:21;;;;;;;57.05;37.00;;;;;;;;;;5024000;27;95105;-70
2022/06/26 02:41:50;;;;;;;53.30;37.65;;;;;;;;;;5038249;27;95209;-71
2022/06/26 02:44:16;;;;;;;42.75;30.55;;;;;;;;;;5015994;27;93021;-70
2022/06/26 02:46:43;;;;;;;49.47;34.92;;;;;;;;;;5019190;27;92935;-70
2022/06/26 02:49:11;;;;;;;48.72;36.00;;;;;;;;;;5017213;27;95838;-70
2022/06/26 02:51:37;;;;;;;69.45;41.75;;;;;;;;;;5026104;27;94862;-71
2022/06/26 02:54:04;;;;;;;44.67;34.17;;;;;;;;;;5018028;28;93007;-71
2022/06/26 02:56:30;;;;;;;48.20;34.53;;;;;;;;;;5026299;28;95729;-71
2022/06/26 02:58:57;;;;;;;48.50;35.92;;;;;;;;;;5023211;28;93217;-71
2022/06/26 03:01:24;;;;;;;61.38;39.42;;;;;;;;;;5031862;27;93015;-71
2022/06/26 03:04:04;;;;;;;63.08;39.60;;;;;;;;;;5016984;28;96413;-72
2022/06/26 03:06:31;;;;;;;53.42;36.80;;;;;;;;;;5034827;27;92539;-71
2022/06/26 03:08:58;;;;;;;72.72;42.92;;;;;;;;;;5034302;27;93136;-71
2022/06/26 03:11:26;;;;;;;52.28;36.67;;;;;;;;;;5015254;27;93174;-71
2022/06/26 03:13:52;;;;;;;50.50;33.85;;;;;;;;;;5018221;27;92582;-71
2022/06/26 03:16:18;;;;;;;55.85;38.55;;;;;;;;;;5042833;27;92815;-70
2022/06/26 03:18:45;;;;;;;64.18;38.92;;;;;;;;;;5023869;28;93478;-70
2022/06/26 03:21:11;;;;;;;72.75;41.60;;;;;;;;;;5040380;27;92842;-70
2022/06/26 03:26:24;;;;;;;76.07;45.38;;;;;;;;;;5032667;27;92677;-71
2022/06/26 03:28:51;;;;;;;61.58;39.17;;;;;;;;;;5015423;28;94836;-70
2022/06/26 03:31:17;;;;;;;54.67;37.97;;;;;;;;;;5017750;27;93147;-71
2022/06/26 03:33:44;;;;;;;58.63;39.28;;;;;;;;;;5035424;27;92762;-70
2022/06/26 03:36:12;;;;;;;58.50;36.17;;;;;;;;;;5032382;27;92980;-70
2022/06/26 03:38:39;;;;;;;57.13;35.20;;;;;;;;;;5029943;27;94151;-71
2022/06/26 03:41:09;;;;;;;58.55;36.80;;;;;;;;;;5032005;27;92837;-71
2022/06/26 03:43:35;;;;;;;42.10;30.42;;;;;;;;;;5035941;27;94141;-71
2022/06/26 03:46:03;;;;;;;48.22;35.08;;;;;;;;;;5018116;28;91831;-71
2022/06/26 03:48:30;;;;;;;49.80;33.13;;;;;;;;;;5036118;27;93301;-71
2022/06/26 03:50:57;;;;;;;51.03;33.38;;;;;;;;;;5023167;28;95723;-71
2022/06/26 03:53:24;;;;;;;43.85;32.28;;;;;;;;;;5015657;27;94867;-71
2022/06/26 03:55:51;;;;;;;46.72;31.48;;;;;;;;;;5037917;27;95686;-71
2022/06/26 03:58:20;;;;;;;46.80;31.02;;;;;;;;;;5037314;27;96847;-71
2022/06/26 04:00:47;;;;;;;51.35;32.95;;;;;;;;;;5028465;27;92543;-70
2022/06/26 04:03:13;;;;;;;41.30;30.65;;;;;;;;;;5030395;27;95241;-71
2022/06/26 04:05:40;;;;;;;51.95;34.08;;;;;;;;;;5034372;27;94064;-71
2022/06/26 04:08:07;;;;;;;41.38;30.77;;;;;;;;;;5035994;27;94030;-70
2022/06/26 04:10:42;;;;;;;44.47;29.40;;;;;;;;;;5024572;27;95175;-71
2022/06/26 04:13:37;;;;;;;43.92;31.20;;;;;;;;;;5023239;27;93976;-71
2022/06/26 04:16:04;;;;;;;44.03;29.52;;;;;;;;;;5039831;27;92832;-71
2022/06/26 04:18:34;;;;;;;36.20;28.63;;;;;;;;;;5028032;27;97434;-71
2022/06/26 04:21:02;;;;;;;40.10;28.33;;;;;;;;;;5025446;28;92527;-71
2022/06/26 04:23:28;;;;;;;45.53;26.38;;;;;;;;;;5018538;27;95600;-71
2022/06/26 04:26:03;;;;;;;38.35;26.08;;;;;;;;;;5023467;27;94201;-71
2022/06/26 04:28:29;;;;;;;37.88;25.73;;;;;;;;;;5028305;27;95254;-71
2022/06/26 04:30:58;;;;;;;45.78;28.33;;;;;;;;;;5024609;27;94381;-71
2022/06/26 04:33:25;;;;;;;40.47;26.40;;;;;;;;;;5016946;28;93089;-71
2022/06/26 04:35:52;;;;;;;40.10;27.02;;;;;;;;;;5016398;27;94821;-71
2022/06/26 04:38:18;;;;;;;40.47;27.20;;;;;;;;;;5037671;27;94304;-71
2022/06/26 04:40:46;;;;;;;46.13;29.77;;;;;;;;;;5032692;27;92516;-71
2022/06/26 04:43:12;;;;;;;39.85;27.17;;;;;;;;;;5011649;28;94936;-71
2022/06/26 04:45:44;;;;;;;41.47;27.00;;;;;;;;;;5014511;28;93149;-71
2022/06/26 04:48:10;;;;;;;42.60;29.08;;;;;;;;;;5016420;28;92903;-71
2022/06/26 04:50:37;;;;;;;41.50;26.65;;;;;;;;;;5013119;28;95173;-71
2022/06/26 04:53:03;;;;;;;37.60;26.65;;;;;;;;;;5028421;28;93081;-71
2022/06/26 04:55:32;;;;;;;37.55;26.08;;;;;;;;;;5012997;28;95323;-71
2022/06/26 04:57:59;;;;;;;40.88;26.98;;;;;;;;;;5020108;28;95490;-71
2022/06/26 05:00:26;;;;;;;37.22;25.40;;;;;;;;;;5012868;28;92754;-71
2022/06/26 05:03:15;;;;;;;37.95;24.80;;;;;;;;;;5008759;28;93498;-71
2022/06/26 05:05:51;;;;;;;34.45;25.65;;;;;;;;;;5020653;28;93250;-71
2022/06/26 05:08:40;;;;;;;33.17;25.48;;;;;;;;;;5015121;28;96294;-71
2022/06/26 05:11:06;;;;;;;28.55;23.70;;;;;;;;;;5028969;28;92548;-71
2022/06/26 05:13:36;;;;;;;36.17;24.67;;;;;;;;;;5011979;28;92580;-71
2022/06/26 05:16:28;;;;;;;29.90;22.10;;;;;;;;;;5011618;28;93024;-71
2022/06/26 05:18:57;;;;;;;26.48;21.08;;;;;;;;;;5026349;28;92557;-71
2022/06/26 05:21:24;;;;;;;28.38;21.83;;;;;;;;;;5026896;28;92455;-71
2022/06/26 05:23:50;;;;;;;29.05;20.67;;;;;;;;;;5028769;28;95363;-71
2022/06/26 05:26:17;;;;;;;26.92;20.25;;;;;;;;;;5020893;28;94973;-71
2022/06/26 05:28:48;;;;;;;31.88;19.98;;;;;;;;;;5011676;28;93317;-72
2022/06/26 05:31:15;;;;;;;22.58;18.40;;;;;;;;;;5034671;28;94902;-71
2022/06/26 05:33:42;;;;;;;26.20;19.20;;;;;;;;;;5025895;28;95322;-72
2022/06/26 05:36:10;;;;;;;24.35;17.52;;;;;;;;;;5012728;28;96681;-72
2022/06/26 05:38:37;;;;;;;27.80;18.38;;;;;;;;;;5025891;28;93130;-71
2022/06/26 05:41:04;;;;;;;23.50;16.02;;;;;;;;;;5010970;27;94383;-72
2022/06/26 05:43:34;;;;;;;15.98;14.25;;;;;;;;;;5018923;27;94437;-72
2022/06/26 05:46:01;;;;;;;16.75;13.43;;;;;;;;;;5022067;27;93418;-72
2022/06/26 05:48:47;;;;;;;19.58;13.05;;;;;;;;;;5034046;27;94464;-73
2022/06/26 05:51:51;;;;;;;20.83;13.18;;;;;;;;;;5003764;28;92672;-72
2022/06/26 05:54:24;;;;;;;17.60;12.18;;;;;;;;;;4991140;28;94283;-72
2022/06/26 05:57:11;;;;;;;17.08;12.00;;;;;;;;;;4975874;27;92695;-72
2022/06/26 05:59:50;;;;;;;17.25;11.13;;;;;;;;;;5019831;27;98239;-72
2022/06/26 06:02:37;;;;;;;15.27;10.90;;;;;;;;;;5028018;27;93277;-72
2022/06/26 06:05:04;;;;;;;16.77;10.57;;;;;;;;;;5036916;27;93910;-72
2022/06/26 06:07:30;;;;;;;13.07;10.35;;;;;;;;;;5037707;27;95157;-72
2022/06/26 06:09:57;;;;;;;14.18;9.40;;;;;;;;;;5027464;27;92687;-72
2022/06/26 06:12:24;;;;;;;10.75;9.40;;;;;;;;;;5023619;27;95718;-72
2022/06/26 06:14:50;;;;;;;10.50;9.43;;;;;;;;;;5036155;27;95582;-73
2022/06/26 06:17:36;;;;;;;12.63;9.30;;;;;;;;;;5021509;27;91889;-72
2022/06/26 06:20:05;;;;;;;8.88;8.05;;;;;;;;;;5018187;27;95640;-72
2022/06/26 06:22:36;;;;;;;;;;;;;;;;;;5024297;27;92596;-72
2022/06/26 06:25:03;;;;;;;10.98;8.00;;;;;;;;;;5018395;27;121879;-70
2022/06/26 06:27:38;;;;;;;8.38;7.40;;;;;;;;;;5017994;27;95483;-70
2022/06/26 06:30:10;;;;;;;8.93;7.45;;;;;;;;;;5021465;27;92694;-70
2022/06/26 06:32:37;;;;;;;10.02;7.05;;;;;;;;;;5014814;27;93357;-69
2022/06/26 06:35:12;;;;;;;9.48;6.78;;;;;;;;;;5019518;28;93179;-70
2022/06/26 06:37:43;;;;;;;11.95;7.07;;;;;;;;;;5022821;27;94238;-70
2022/06/26 06:40:11;;;;;;;9.87;7.00;;;;;;;;;;5015451;27;96674;-71
2022/06/26 06:42:40;;;;;;;10.70;6.90;;;;;;;;;;5021391;27;91865;-70
2022/06/26 06:45:11;;;;;;;11.75;7.07;;;;;;;;;;5020498;27;95166;-71
2022/06/26 06:47:50;;;;;;;8.02;7.30;;;;;;;;;;5017685;27;94821;-71
2022/06/26 06:50:35;;;;;;;10.88;6.85;;;;;;;;;;5035052;27;95637;-71
2022/06/26 06:53:02;;;;;;;8.38;6.75;;;;;;;;;;5019655;27;97189;-72
2022/06/26 06:55:28;;;;;;;6.78;6.05;;;;;;;;;;5016261;27;95658;-72
2022/06/26 06:57:56;;;;;;;7.32;6.03;;;;;;;;;;5021541;27;93901;-71
2022/06/26 07:00:23;;;;;;;9.02;6.10;;;;;;;;;;5035601;27;92960;-71
2022/06/26 07:02:50;;;;;;;8.52;6.25;;;;;;;;;;5019697;27;93697;-71
2022/06/26 07:05:19;;;;;;;8.38;6.38;;;;;;;;;;5016637;27;93360;-71
2022/06/26 07:07:48;;;;;;;8.05;6.10;;;;;;;;;;5021218;27;94480;-71
2022/06/26 07:10:15;;;;;;;10.23;6.00;;;;;;;;;;5025645;27;92602;-70
2022/06/26 07:12:50;;;;;;;7.35;6.38;;;;;;;;;;5015376;28;96026;-71
2022/06/26 07:15:16;;;;;;;9.32;6.05;;;;;;;;;;5033656;27;95773;-70
2022/06/26 07:17:43;;;;;;;9.13;5.95;;;;;;;;;;5020504;27;93504;-70
2022/06/26 07:20:09;;;;;;;6.15;5.50;;;;;;;;;;5016381;27;95180;-70
2022/06/26 07:22:36;;;;;;;6.68;6.07;;;;;;;;;;5040939;27;93382;-70
2022/06/26 07:25:12;;;;;;;7.15;5.40;;;;;;;;;;5010497;27;93503;-70
2022/06/26 07:27:45;;;;;;;8.27;6.05;;;;;;;;;;5016200;27;94145;-70
2022/06/26 07:30:11;;;;;;;10.40;5.50;;;;;;;;;;5036161;27;95127;-70
2022/06/26 07:32:54;;;;;;;6.43;5.25;;;;;;;;;;5014737;27;92957;-70
2022/06/26 07:35:21;;;;;;;9.05;6.05;;;;;;;;;;5033187;27;96348;-70
2022/06/26 07:37:48;;;;;;;5.97;5.40;;;;;;;;;;5019265;28;92659;-70
2022/06/26 07:40:14;;;;;;;7.75;6.15;;;;;;;;;;5014749;27;95511;-70
2022/06/26 07:42:41;;;;;;;9.38;6.70;;;;;;;;;;5014387;27;95009;-70
2022/06/26 07:45:08;;;;;;;11.10;6.78;;;;;;;;;;5014684;27;93926;-70
2022/06/26 07:47:50;;;;;;;10.10;5.90;;;;;;;;;;5022127;27;95592;-70
2022/06/26 07:50:16;;;;;;;10.32;5.38;;;;;;;;;;5019016;27;94801;-72
2022/06/26 07:52:43;;;;;;;7.80;5.88;;;;;;;;;;5031199;27;94327;-72
2022/06/26 07:55:09;;;;;;;8.90;5.38;;;;;;;;;;5034770;27;93448;-72
2022/06/26 07:57:35;;;;;;;7.40;4.88;;;;;;;;;;5026265;27;94007;-72
2022/06/26 08:00:03;;;;;;;12.48;4.57;;;;;;;;;;5029168;27;94234;-72
2022/06/26 08:02:39;;;;;;;4.97;4.57;;;;;;;;;;5031570;27;93402;-75
2022/06/26 08:05:05;;;;;;;5.20;4.40;;;;;;;;;;5033955;27;94999;-70
2022/06/26 08:07:32;;;;;;;5.45;4.25;;;;;;;;;;5042876;27;95442;-71
2022/06/26 08:09:59;;;;;;;5.03;4.63;;;;;;;;;;5037789;27;92554;-71
2022/06/26 08:12:26;;;;;;;4.88;4.13;;;;;;;;;;5050725;27;92922;-70
2022/06/26 08:14:52;;;;;;;6.72;4.18;;;;;;;;;;5043405;27;94098;-70
2022/06/26 08:17:19;;;;;;;4.25;3.83;;;;;;;;;;5034848;27;92575;-70
2022/06/26 08:19:47;;;;;;;8.68;3.80;;;;;;;;;;5038322;27;94132;-70
2022/06/26 08:22:13;;;;;;;6.25;4.22;;;;;;;;;;5044132;27;93335;-71
2022/06/26 08:24:41;;;;;;;4.45;3.40;;;;;;;;;;5035060;27;92545;-71
2022/06/26 08:27:08;;;;;;;4.03;3.67;;;;;;;;;;5035764;27;93575;-70
2022/06/26 08:29:35;;;;;;;6.63;3.67;;;;;;;;;;5045012;27;96201;-71
2022/06/26 08:32:02;;;;;;;6.30;3.53;;;;;;;;;;5034999;27;96335;-71
2022/06/26 08:34:28;;;;;;;4.53;3.45;;;;;;;;;;5034197;27;94309;-71
2022/06/26 08:36:55;;;;;;;2.92;2.72;;;;;;;;;;5043153;27;93488;-71
2022/06/26 08:39:22;;;;;;;7.35;3.20;;;;;;;;;;5035686;27;93718;-71
2022/06/26 08:41:51;;;;;;;5.93;3.50;;;;;;;;;;5038130;27;94206;-70
2022/06/26 08:44:17;;;;;;;3.67;3.20;;;;;;;;;;5046967;27;93654;-71
2022/06/26 08:46:45;;;;;;;5.60;3.00;;;;;;;;;;5035821;27;92416;-70
2022/06/26 08:49:13;;;;;;;5.10;3.35;;;;;;;;;;5041715;27;94537;-70
2022/06/26 08:51:40;;;;;;;4.78;3.17;;;;;;;;;;5038498;27;92577;-70
2022/06/26 08:54:09;;;;;;;6.80;3.28;;;;;;;;;;5036882;27;96612;-70
2022/06/26 08:56:38;;;;;;;4.97;3.03;;;;;;;;;;5042902;27;92505;-70
2022/06/26 08:59:11;;;;;;;5.45;2.90;;;;;;;;;;5041493;27;93745;-70
2022/06/26 09:01:38;;;;;;;3.42;2.05;;;;;;;;;;5052060;27;94178;-71
2022/06/26 09:04:05;;;;;;;6.47;2.10;;;;;;;;;;5046729;27;92522;-70
2022/06/26 09:06:35;;;;;;;2.75;2.13;;;;;;;;;;5045775;27;94133;-70
2022/06/26 09:09:24;;;;;;;3.10;2.30;;;;;;;;;;5034814;27;95146;-70
2022/06/26 09:11:52;;;;;;;6.03;2.65;;;;;;;;;;5034767;27;92033;-72
2022/06/26 09:14:22;;;;;;;4.35;2.45;;;;;;;;;;5044461;27;92547;-70
2022/06/26 09:16:49;;;;;;;4.70;2.67;;;;;;;;;;5034490;27;92501;-72
2022/06/26 09:19:21;;;;;;;3.42;2.78;;;;;;;;;;5032699;27;94972;-72
2022/06/26 09:21:47;;;;;;;4.70;3.00;;;;;;;;;;5043682;27;93214;-72
2022/06/26 09:24:16;;;;;;;6.50;3.00;;;;;;;;;;5054393;27;92498;-72
2022/06/26 09:27:02;;;;;;;3.15;2.80;;;;;;;;;;5048153;27;94332;-73
2022/06/26 09:29:28;;;;;;;3.90;2.83;;;;;;;;;;5042285;27;94990;-72
2022/06/26 09:31:55;;;;;;;4.72;2.50;;;;;;;;;;5045480;27;92960;-70
2022/06/26 09:34:25;;;;;;;5.10;2.47;;;;;;;;;;5050634;27;93947;-70
2022/06/26 09:36:57;;;;;;;2.53;2.33;;;;;;;;;;5035142;27;91734;-72
2022/06/26 09:39:25;;;;;;;5.22;2.40;;;;;;;;;;5034468;27;93397;-73
2022/06/26 09:41:51;;;;;;;2.22;1.95;;;;;;;;;;5034714;27;94943;-72
2022/06/26 09:44:20;;;;;;;3.13;2.03;;;;;;;;;;5045031;27;94860;-72
2022/06/26 09:46:47;;;;;;;3.40;1.98;;;;;;;;;;5044413;27;96323;-73
2022/06/26 09:49:15;;;;;;;3.63;2.50;;;;;;;;;;5037881;27;93229;-73
2022/06/26 09:51:43;;;;;;;5.35;2.50;;;;;;;;;;5036307;27;92514;-73
2022/06/26 09:54:09;;;;;;;3.13;2.47;;;;;;;;;;5034155;27;93868;-73
2022/06/26 09:56:36;;;;;;;3.80;3.03;;;;;;;;;;5044559;27;94639;-73
2022/06/26 09:59:02;;;;;;;3.45;3.15;;;;;;;;;;5034515;27;93933;-71
2022/06/26 10:07:00;;;;;;;11.23;3.78;;;;;;;;;;5035198;27;94193;-70
2022/06/26 10:09:27;;;;;;;4.72;4.32;;;;;;;;;;5034127;27;96825;-71
2022/06/26 10:11:54;;;;;;;5.93;3.53;;;;;;;;;;5051992;27;92552;-71
2022/06/26 10:14:30;;;;;;;5.10;4.60;;;;;;;;;;5054016;27;93869;-71
2022/06/26 10:17:02;;;;;;;5.07;4.32;;;;;;;;;;5035030;27;94191;-71
2022/06/26 10:19:29;;;;;;;6.60;4.63;;;;;;;;;;5036988;27;92607;-71
2022/06/26 10:21:55;;;;;;;4.32;3.92;;;;;;;;;;5042327;27;94096;-71
2022/06/26 10:24:22;;;;;;;4.80;4.40;;;;;;;;;;5040003;27;92481;-71
2022/06/26 10:26:55;;;;;;;9.52;4.78;;;;;;;;;;5037160;27;94308;-71
2022/06/26 10:29:51;;;;;;;5.10;4.63;;;;;;;;;;5041142;27;94233;-71
2022/06/26 10:32:22;;;;;;;6.97;5.38;;;;;;;;;;5020051;27;92485;-71
2022/06/26 10:34:55;;;;;;;5.93;5.35;;;;;;;;;;5031307;27;94844;-71
2022/06/26 10:37:22;;;;;;;5.78;5.00;;;;;;;;;;5032387;27;94171;-71
2022/06/26 10:39:49;;;;;;;8.52;5.13;;;;;;;;;;5032873;27;92826;-71
2022/06/26 10:45:06;;;;;;;6.63;4.95;;;;;;;;;;5043549;27;92413;-71
2022/06/26 10:47:42;;;;;;;11.23;4.67;;;;;;;;;;5039634;27;93351;-71
2022/06/26 10:50:21;;;;;;;7.63;3.95;;;;;;;;;;5036367;27;94088;-73
2022/06/26 10:52:48;;;;;;;5.40;3.35;;;;;;;;;;5032740;27;91856;-73
2022/06/26 10:55:14;;;;;;;4.80;3.13;;;;;;;;;;5033567;27;93190;-73
2022/06/26 10:57:41;;;;;;;6.80;4.25;;;;;;;;;;5040473;27;93953;-71
2022/06/26 11:00:10;;;;;;;4.22;3.75;;;;;;;;;;5049094;27;94979;-71
2022/06/26 11:02:38;;;;;;;5.13;3.58;;;;;;;;;;5034099;27;96242;-72
2022/06/26 11:05:05;;;;;;;6.47;4.65;;;;;;;;;;5052242;27;94162;-72
2022/06/26 11:07:41;;;;;;;3.58;3.28;;;;;;;;;;5053204;27;95788;-72
2022/06/26 11:10:10;;;;;;;5.03;3.05;;;;;;;;;;5035854;27;94185;-72
2022/06/26 11:12:40;;;;;;;7.40;3.00;;;;;;;;;;5039199;27;93795;-72
2022/06/26 11:15:07;;;;;;;2.85;2.40;;;;;;;;;;5033328;27;94117;-72
2022/06/26 11:17:33;;;;;;;4.38;2.40;;;;;;;;;;5037047;27;92631;-72
2022/06/26 11:22:46;;;;;;;4.25;2.30;;;;;;;;;;5032521;27;93161;-73
2022/06/26 11:25:13;;;;;;;4.05;2.47;;;;;;;;;;5038916;27;96611;-72
2022/06/26 11:27:39;;;;;;;3.40;2.85;;;;;;;;;;5043393;27;92533;-72
2022/06/26 11:30:06;;;;;;;3.47;2.58;;;;;;;;;;5032791;27;94146;-72
2022/06/26 11:32:32;;;;;;;3.03;2.63;;;;;;;;;;5044539;27;92470;-72
2022/06/26 11:34:59;;;;;;;4.25;2.53;;;;;;;;;;5043389;27;93271;-72
2022/06/26 11:37:36;;;;;;;6.57;2.53;;;;;;;;;;5034850;27;94464;-72
2022/06/26 11:40:16;;;;;;;6.95;2.67;;;;;;;;;;5035422;27;92979;-73
2022/06/26 11:42:43;;;;;;;3.72;3.03;;;;;;;;;;5040870;27;93084;-73
2022/06/26 11:45:19;;;;;;;5.05;3.05;;;;;;;;;;5049001;27;94238;-73
2022/06/26 11:47:45;;;;;;;5.88;2.92;;;;;;;;;;5037452;27;92890;-73
2022/06/26 11:50:18;;;;;;;4.03;2.67;;;;;;;;;;5034503;27;96461;-73
2022/06/26 11:52:50;;;;;;;5.35;2.72;;;;;;;;;;5040300;27;93893;-73
2022/06/26 11:55:16;;;;;;;8.35;2.40;;;;;;;;;;5043552;27;95062;-73
2022/06/26 11:57:42;;;;;;;7.38;2.78;;;;;;;;;;5049798;27;93658;-73
2022/06/26 12:00:10;;;;;;;4.65;3.00;;;;;;;;;;5046856;27;92476;-73
2022/06/26 12:02:40;;;;;;;3.30;2.78;;;;;;;;;;5046506;27;93937;-72
2022/06/26 12:05:07;;;;;;;4.28;2.90;;;;;;;;;;5055034;27;92421;-72
2022/06/26 12:07:44;;;;;;;4.55;2.60;;;;;;;;;;5037297;27;91809;-72
2022/06/26 12:10:11;;;;;;;4.22;2.63;;;;;;;;;;5038123;27;93664;-72
2022/06/26 12:12:47;;;;;;;4.25;2.30;;;;;;;;;;5037596;27;92530;-73
2022/06/26 12:15:15;;;;;;;7.18;3.20;;;;;;;;;;5045192;27;95434;-72
2022/06/26 12:17:42;;;;;;;3.95;2.58;;;;;;;;;;5035501;27;94188;-73
2022/06/26 12:20:10;;;;;;;4.57;2.45;;;;;;;;;;5035853;27;92483;-73
2022/06/26 12:22:36;;;;;;;3.53;2.20;;;;;;;;;;5042411;27;94039;-73
2022/06/26 12:25:03;;;;;;;4.43;2.20;;;;;;;;;;5035675;27;93154;-72
2022/06/26 12:27:36;;;;;;;3.90;2.58;;;;;;;;;;5035909;27;92499;-72
2022/06/26 12:30:29;;;;;;;6.55;2.75;;;;;;;;;;5055052;27;93256;-72
2022/06/26 12:32:57;;;;;;;3.65;2.60;;;;;;;;;;5035008;27;93599;-72
2022/06/26 12:35:24;;;;;;;5.07;2.25;;;;;;;;;;5043630;27;93097;-72
2022/06/26 12:37:50;;;;;;;5.35;2.42;;;;;;;;;;5034380;27;94360;-73
2022/06/26 12:40:17;;;;;;;7.63;2.80;;;;;;;;;;5033568;27;94924;-72
2022/06/26 12:42:43;;;;;;;4.43;3.00;;;;;;;;;;5042462;27;96510;-72
2022/06/26 12:45:10;;;;;;;5.45;2.30;;;;;;;;;;5034192;27;94042;-72
2022/06/26 12:47:36;;;;;;;4.90;2.92;;;;;;;;;;5034757;27;92568;-72
2022/06/26 12:50:04;;;;;;;4.53;2.63;;;;;;;;;;5042867;27;93364;-72
2022/06/26 12:52:32;;;;;;;4.70;3.20;;;;;;;;;;5042584;27;94672;-72
2022/06/26 12:54:59;;;;;;;5.00;2.85;;;;;;;;;;5041328;27;92521;-72
2022/06/26 12:57:26;;;;;;;3.45;2.58;;;;;;;;;;5034580;27;94664;-72
2022/06/26 12:59:52;;;;;;;4.10;2.67;;;;;;;;;;5036868;27;92499;-72
2022/06/26 13:02:19;;;;;;;5.22;2.58;;;;;;;;;;5048104;27;95738;-72
2022/06/26 13:04:45;;;;;;;6.25;2.90;;;;;;;;;;5032047;27;96640;-72
2022/06/26 13:07:11;;;;;;;5.97;2.45;;;;;;;;;;5039970;27;92474;-72
2022/06/26 13:09:38;;;;;;;7.22;3.13;;;;;;;;;;5045901;27;93957;-72
2022/06/26 13:12:05;;;;;;;7.30;2.90;;;;;;;;;;5045755;27;94440;-72
2022/06/26 13:14:33;;;;;;;4.38;2.78;;;;;;;;;;5038774;27;92882;-72
2022/06/26 13:16:59;;;;;;;7.35;2.90;;;;;;;;;;5046452;27;94040;-72
2022/06/26 13:19:26;;;;;;;5.97;2.78;;;;;;;;;;5033858;27;92599;-73
2022/06/26 13:21:52;;;;;;;5.85;2.78;;;;;;;;;;5042705;27;94219;-72
2022/06/26 13:24:19;;;;;;;5.35;3.40;;;;;;;;;;5034570;27;94543;-72
2022/06/26 13:26:47;;;;;;;7.75;2.80;;;;;;;;;;5033842;27;92503;-72
2022/06/26 13:29:14;;;;;;;4.10;2.90;;;;;;;;;;5044836;27;95112;-73
2022/06/26 13:31:40;;;;;;;4.45;2.88;;;;;;;;;;5053685;27;93181;-72
2022/06/26 13:34:07;;;;;;;5.38;3.28;;;;;;;;;;5037352;27;92950;-73
2022/06/26 13:36:33;;;;;;;3.08;2.15;;;;;;;;;;5042003;27;95064;-72
2022/06/26 13:39:00;;;;;;;3.30;2.45;;;;;;;;;;5034746;27;92478;-72
2022/06/26 13:41:26;;;;;;;4.55;2.10;;;;;;;;;;5033710;27;92719;-72
2022/06/26 13:43:53;;;;;;;6.20;2.92;;;;;;;;;;5052035;27;94139;-72
2022/06/26 13:46:19;;;;;;;3.78;2.30;;;;;;;;;;5054819;27;91715;-72
2022/06/26 13:48:46;;;;;;;5.30;2.10;;;;;;;;;;5045096;27;93115;-72
2022/06/26 13:51:12;;;;;;;8.23;2.38;;;;;;;;;;5046417;27;94213;-72
2022/06/26 13:53:39;;;;;;;5.30;1.98;;;;;;;;;;5051584;27;95071;-72
2022/06/26 13:56:05;;;;;;;2.63;1.98;;;;;;;;;;5043007;27;96276;-72
2022/06/26 13:58:32;;;;;;;7.40;3.00;;;;;;;;;;5053688;27;94146;-72
2022/06/26 14:00:58;;;;;;;7.00;2.40;;;;;;;;;;5044685;27;93765;-72
2022/06/26 14:03:24;;;;;;;4.05;2.33;;;;;;;;;;5040707;27;94348;-73
2022/06/26 14:05:51;;;;;;;3.90;1.60;;;;;;;;;;5034468;27;92564;-72
2022/06/26 14:08:17;;;;;;;7.05;1.92;;;;;;;;;;5032637;27;93000;-74
2022/06/26 14:10:43;;;;;;;6.13;2.65;;;;;;;;;;5040907;27;93581;-72
2022/06/26 14:13:10;;;;;;;6.55;2.20;;;;;;;;;;5053304;27;93966;-72
2022/06/26 14:15:36;;;;;;;3.72;1.98;;;;;;;;;;5038457;27;94080;-72
2022/06/26 14:18:10;;;;;;;4.95;2.17;;;;;;;;;;5047433;27;95579;-72
2022/06/26 14:20:36;;;;;;;4.95;2.15;;;;;;;;;;5035670;27;92515;-72
2022/06/26 14:25:56;;;;;;;3.42;1.88;;;;;;;;;;5040951;27;92396;-72
2022/06/26 14:28:23;;;;;;;5.40;2.10;;;;;;;;;;5033379;27;92450;-72
2022/06/26 14:30:49;;;;;;;3.83;2.05;;;;;;;;;;5032994;27;94119;-72
2022/06/26 14:33:16;;;;;;;7.03;2.20;;;;;;;;;;5044261;27;92488;-72
2022/06/26 14:35:44;;;;;;;2.42;1.63;;;;;;;;;;5053275;27;94098;-72
2022/06/26 14:38:11;;;;;;;6.40;2.30;;;;;;;;;;5053329;27;94488;-72
2022/06/26 14:40:37;;;;;;;4.65;2.00;;;;;;;;;;5039827;27;92490;-72
2022/06/26 14:43:04;;;;;;;7.63;2.75;;;;;;;;;;5034148;27;95303;-72
2022/06/26 14:45:30;;;;;;;5.18;2.28;;;;;;;;;;5043942;27;93579;-72
2022/06/26 14:47:57;;;;;;;8.13;2.58;;;;;;;;;;5045033;27;93906;-72
2022/06/26 14:50:23;;;;;;;4.05;2.28;;;;;;;;;;5048546;27;93510;-73
2022/06/26 14:52:53;;;;;;;4.35;2.35;;;;;;;;;;5040297;27;93889;-73
2022/06/26 14:55:20;;;;;;;5.57;2.40;;;;;;;;;;5046535;27;94172;-73
2022/06/26 14:57:46;;;;;;;6.72;2.85;;;;;;;;;;5031968;27;94106;-73
2022/06/26 15:00:13;;;;;;;5.75;2.35;;;;;;;;;;5039531;27;92900;-71
2022/06/26 15:02:40;;;;;;;7.38;2.95;;;;;;;;;;5032506;27;93163;-70